Aérodrome :
LOGIN :

S'inscrire | Disclaimer

   EN    FR    IT 

 










Légende :    VFR   VFR Marginal   IFR   IFR Intensif   IFR Très Intensif
Visi : 
Plafond : 
>= 8 km
>= 3000ft
5 à 8 km
1000 à 3000 ft
1500m à 5 km
500 à 1000 ft
800 à 1500m
200 à 500 ft
< 800m
< 200 ft
Symboles :   Orages  Brouillard  Fortes neiges  Fortes précipitations  Vent > 20 kt
SIGMETs :   Divers  Orages  Givrage  Turbulence  Onde Orograph.  Cendres Volcan.






- Altitude de l'aérodrome : 36 ft
- Code IATA : LTQ


LFAT - Le Touquet

DERNIER METAR :
  • 270700Z AUTO 20007KT 170V230 9999 BKN013/// OVC220/// 08/07 Q1006 BECMG OVC030

METARs EXPIRÉS :
  • 270630Z AUTO 20007KT 170V230 9999 FEW014/// BKN220/// OVC240/// 08/07 Q1006 NOSIG
  • 270600Z AUTO 21007KT 180V240 9999 SCT016/// BKN230/// 08/07 Q1007
  • 270530Z AUTO 22008KT 9999 FEW018/// OVC039/// 09/08 Q1007
  • 270500Z AUTO 22008KT 190V260 9999 FEW014/// OVC033/// 09/08 Q1007
  • 270430Z AUTO 21008KT 180V240 9999 OVC013/// 09/08 Q1007

TAF TAF LFAT
Valide du 27 à 06h jusqu'au 27 à 15h UTC


270500Z 2706/2715 23015KT 9999 OVC030
TEMPO 2712/2715 23015G25KT 3000 RA BKN010 SCT025CB
ATIS : +33 3 21 06 62 84



MET'MAP, la Météo Aéronautique d'un coup d'oeil ! - Copyright ORBIFLY Décembre 2007 - Disclaimer

ORBIFLY MET'MAP TEAM :

Programmation & Développement : Alexandra Zaïnal
Sur une idée originale de : Baudouin d'Aumeries
Assistance à la programmation : Marc-Olivier Méhu
Soutien technique & logistique : Manuel Goepfert

Contact : metmap@orbifly.com




SOURCES & CREDITS :

   NOAA